createdAt,value
2024-05-09T00:01:59.876Z,3.00
2024-05-09T00:04:31.371Z,2.80
2024-05-09T00:07:02.827Z,2.60
2024-05-09T00:09:34.075Z,2.60
2024-05-09T00:12:06.089Z,2.40
2024-05-09T00:14:37.316Z,2.60
2024-05-09T00:17:08.582Z,2.70
2024-05-09T00:19:39.815Z,2.80
2024-05-09T00:22:11.443Z,2.60
2024-05-09T00:24:42.497Z,2.30
2024-05-09T00:27:13.714Z,2.80
2024-05-09T00:29:44.833Z,3.00
2024-05-09T00:32:16.302Z,2.50
2024-05-09T00:34:47.670Z,2.50
2024-05-09T00:37:18.713Z,2.50
2024-05-09T00:39:49.748Z,2.40
2024-05-09T00:47:20.161Z,2.20
2024-05-09T00:49:51.604Z,2.10
2024-05-09T00:52:23.341Z,2.20
2024-05-09T00:54:54.576Z,2.70
2024-05-09T00:57:26.542Z,3.20
2024-05-09T00:59:57.929Z,2.40
2024-05-09T01:02:29.401Z,3.00
2024-05-09T01:05:01.148Z,2.80
2024-05-09T01:07:32.612Z,3.20
2024-05-09T01:10:05.634Z,2.30
2024-05-09T01:12:40.192Z,2.90
2024-05-09T01:15:11.252Z,2.30
2024-05-09T01:17:43.327Z,2.70
2024-05-09T01:20:20.202Z,2.40
2024-05-09T01:23:00.658Z,2.40
2024-05-09T01:25:32.758Z,2.80
2024-05-09T01:28:04.219Z,2.80
2024-05-09T01:30:37.402Z,3.20
2024-05-09T01:33:11.305Z,3.10
2024-05-09T01:35:43.615Z,3.00
2024-05-09T01:38:17.028Z,3.20
2024-05-09T01:40:49.140Z,2.70
2024-05-09T01:43:20.335Z,2.90
2024-05-09T01:50:51.683Z,2.40
2024-05-09T01:53:23.030Z,2.20
2024-05-09T01:55:54.366Z,2.50
2024-05-09T01:58:26.236Z,2.80
2024-05-09T02:00:57.414Z,2.40
2024-05-09T02:03:29.899Z,2.50
2024-05-09T02:06:01.430Z,2.90
2024-05-09T02:08:33.386Z,2.70
2024-05-09T02:11:05.127Z,2.60
2024-05-09T02:13:36.524Z,3.00
2024-05-09T02:16:12.872Z,2.70
2024-05-09T02:18:44.072Z,2.60
2024-05-09T02:21:15.352Z,2.50
2024-05-09T02:23:46.688Z,3.00
2024-05-09T02:26:17.975Z,2.60
2024-05-09T02:28:49.083Z,2.50
2024-05-09T02:31:20.389Z,2.30
2024-05-09T02:33:53.952Z,2.30
2024-05-09T02:36:25.539Z,2.40
2024-05-09T02:38:56.851Z,2.40
2024-05-09T02:41:28.258Z,2.10
2024-05-09T02:43:59.625Z,2.40
2024-05-09T02:46:30.895Z,3.10
2024-05-09T02:49:02.087Z,3.20
2024-05-09T02:51:33.220Z,2.70
2024-05-09T02:59:04.049Z,2.00
2024-05-09T03:01:35.372Z,2.10
2024-05-09T03:04:07.733Z,2.50
2024-05-09T03:06:43.581Z,2.10
2024-05-09T03:09:14.900Z,2.70
2024-05-09T03:11:46.803Z,2.30
2024-05-09T03:14:19.538Z,2.40
2024-05-09T03:16:50.766Z,2.40
2024-05-09T03:19:22.245Z,2.20
2024-05-09T03:21:53.659Z,2.40
2024-05-09T03:24:25.017Z,2.30
2024-05-09T03:26:56.068Z,2.30
2024-05-09T03:29:27.214Z,2.30
2024-05-09T03:31:58.402Z,2.30
2024-05-09T03:34:29.400Z,2.20
2024-05-09T03:37:00.646Z,2.60
2024-05-09T03:39:32.009Z,2.90
2024-05-09T03:42:03.219Z,2.40
2024-05-09T03:44:34.422Z,2.30
2024-05-09T03:47:05.912Z,2.40
2024-05-09T03:49:37.231Z,2.60
2024-05-09T03:52:09.137Z,2.30
2024-05-09T03:54:47.478Z,2.30
2024-05-09T03:57:18.699Z,2.30
2024-05-09T03:59:50.064Z,2.20
2024-05-09T04:04:51.828Z,2.40
2024-05-09T04:07:23.043Z,2.30
2024-05-09T04:09:54.363Z,2.40
2024-05-09T04:12:25.629Z,2.50
2024-05-09T04:14:56.921Z,2.30
2024-05-09T04:17:28.991Z,2.50
2024-05-09T04:20:01.125Z,2.60
2024-05-09T04:22:32.506Z,2.30
2024-05-09T04:25:03.633Z,2.40
2024-05-09T04:27:34.651Z,2.60
2024-05-09T04:32:41.052Z,2.10
2024-05-09T04:35:12.450Z,2.30
2024-05-09T04:37:44.339Z,2.30
2024-05-09T04:40:24.268Z,1.90
2024-05-09T04:43:02.652Z,2.20
2024-05-09T04:45:33.769Z,2.30
2024-05-09T04:50:38.346Z,2.60
2024-05-09T04:53:15.648Z,2.70
2024-05-09T04:55:46.955Z,2.90
2024-05-09T04:58:18.509Z,2.80
2024-05-09T05:00:49.671Z,2.80
2024-05-09T05:03:20.974Z,2.60
2024-05-09T05:05:52.515Z,2.30
2024-05-09T05:08:23.758Z,2.80
2024-05-09T05:10:55.417Z,2.60
2024-05-09T05:13:31.738Z,3.00
2024-05-09T05:16:02.708Z,3.10
2024-05-09T05:23:33.988Z,3.00
2024-05-09T05:26:06.042Z,3.00
2024-05-09T05:28:37.098Z,3.20
2024-05-09T05:31:08.668Z,3.10
2024-05-09T05:33:39.755Z,3.50
2024-05-09T05:36:11.611Z,2.70
2024-05-09T05:38:43.052Z,2.90
2024-05-09T05:41:14.185Z,2.80
2024-05-09T05:43:45.686Z,3.60
2024-05-09T05:46:17.121Z,3.50
2024-05-09T05:48:48.450Z,2.90
2024-05-09T05:51:19.811Z,3.80
2024-05-09T05:53:51.233Z,3.70
2024-05-09T05:56:22.956Z,3.50
2024-05-09T05:58:53.971Z,3.90
2024-05-09T06:03:55.053Z,3.30
2024-05-09T06:06:26.251Z,3.50
2024-05-09T06:08:57.622Z,3.70
2024-05-09T06:11:28.913Z,3.80
2024-05-09T06:14:01.622Z,4.40
2024-05-09T06:16:32.987Z,4.60
2024-05-09T06:19:04.299Z,3.60
2024-05-09T06:21:35.614Z,4.60
2024-05-09T06:24:08.078Z,4.60
2024-05-09T06:26:42.022Z,3.90
2024-05-09T06:29:13.978Z,4.30
2024-05-09T06:31:46.239Z,4.50
2024-05-09T06:34:20.496Z,4.10
2024-05-09T06:36:51.891Z,4.70
2024-05-09T06:39:23.538Z,4.40
2024-05-09T06:41:54.897Z,4.90
2024-05-09T06:44:26.263Z,5.20
2024-05-09T06:46:59.619Z,4.90
2024-05-09T06:49:31.532Z,4.70
2024-05-09T06:52:02.669Z,5.00
2024-05-09T06:54:33.879Z,4.40
2024-05-09T06:57:05.384Z,4.40
2024-05-09T06:59:36.199Z,5.20
2024-05-09T07:02:09.716Z,4.20
2024-05-09T07:04:40.786Z,4.60
2024-05-09T07:07:12.207Z,4.00
2024-05-09T07:09:43.336Z,3.80
2024-05-09T07:12:14.472Z,4.30
2024-05-09T07:14:45.673Z,5.10
2024-05-09T07:17:16.914Z,3.70
2024-05-09T07:19:48.014Z,4.60
2024-05-09T07:22:19.090Z,4.70
2024-05-09T07:24:50.050Z,5.00
2024-05-09T07:27:21.123Z,4.50
2024-05-09T07:29:51.987Z,4.60
2024-05-09T07:32:23.744Z,4.80
2024-05-09T07:34:54.901Z,4.60
2024-05-09T07:37:26.542Z,5.00
2024-05-09T07:39:58.009Z,4.70
2024-05-09T07:42:29.192Z,5.00
2024-05-09T07:45:17.712Z,5.00
2024-05-09T07:49:16.424Z,4.10
2024-05-09T07:53:38.311Z,5.80
2024-05-09T07:56:10.430Z,4.50
2024-05-09T07:58:46.177Z,4.60
2024-05-09T08:01:17.727Z,4.60
2024-05-09T08:03:49.072Z,4.40
2024-05-09T08:06:20.578Z,4.80
2024-05-09T08:08:52.048Z,4.60
2024-05-09T08:11:24.117Z,4.80
2024-05-09T08:13:55.596Z,6.10
2024-05-09T08:16:27.174Z,5.00
2024-05-09T08:18:58.930Z,5.80
2024-05-09T08:21:30.492Z,5.70
2024-05-09T08:24:01.988Z,4.20
2024-05-09T08:26:33.153Z,3.80
2024-05-09T08:29:04.672Z,4.40
2024-05-09T08:31:39.333Z,4.60
2024-05-09T08:34:12.105Z,4.70
2024-05-09T08:36:43.420Z,5.30
2024-05-09T08:39:14.699Z,4.40
2024-05-09T08:41:52.015Z,4.70
2024-05-09T08:44:24.152Z,4.60
2024-05-09T08:46:56.529Z,4.30
2024-05-09T08:49:28.658Z,3.90
2024-05-09T08:51:59.932Z,3.70
2024-05-09T08:54:32.763Z,3.40
2024-05-09T08:57:05.174Z,5.10
2024-05-09T08:59:37.396Z,4.50
2024-05-09T09:02:12.556Z,3.90
2024-05-09T09:04:49.223Z,3.30
2024-05-09T09:07:22.509Z,4.30
2024-05-09T09:09:54.776Z,3.80
2024-05-09T09:12:25.866Z,4.30
2024-05-09T09:14:56.982Z,4.70
2024-05-09T09:17:28.135Z,4.00
2024-05-09T09:20:00.362Z,3.70
2024-05-09T09:22:35.049Z,3.40
2024-05-09T09:25:06.827Z,3.80
2024-05-09T09:27:38.303Z,4.10
2024-05-09T09:30:22.961Z,3.70
2024-05-09T09:33:02.223Z,3.40
2024-05-09T09:35:33.495Z,3.40
2024-05-09T09:38:06.072Z,3.00
2024-05-09T09:40:43.168Z,3.70
2024-05-09T09:43:22.520Z,2.80
2024-05-09T09:45:55.820Z,2.70
2024-05-09T09:48:28.256Z,3.00
2024-05-09T09:51:00.462Z,2.50
2024-05-09T09:53:32.714Z,2.70
2024-05-09T09:56:04.086Z,2.50
2024-05-09T09:58:37.036Z,2.50
2024-05-09T10:01:10.188Z,2.90
2024-05-09T10:03:41.677Z,2.70
2024-05-09T10:06:15.194Z,2.70
2024-05-09T10:08:48.057Z,3.00
2024-05-09T10:11:23.131Z,2.60
2024-05-09T10:13:54.790Z,2.70
2024-05-09T10:16:31.108Z,2.50
2024-05-09T10:19:02.486Z,2.80
2024-05-09T10:21:34.164Z,2.80
2024-05-09T10:24:06.807Z,2.80
2024-05-09T10:26:38.996Z,2.30
2024-05-09T10:29:18.425Z,3.40
2024-05-09T10:31:50.106Z,2.50
2024-05-09T10:34:22.880Z,2.20
2024-05-09T10:36:55.867Z,2.50
2024-05-09T10:39:28.004Z,2.80
2024-05-09T10:41:59.236Z,2.00
2024-05-09T10:44:30.411Z,2.20
2024-05-09T10:47:01.377Z,2.10
2024-05-09T10:49:32.812Z,2.30
2024-05-09T10:52:06.407Z,2.10
2024-05-09T10:54:41.027Z,2.00
2024-05-09T10:57:12.341Z,2.10
2024-05-09T10:59:43.095Z,2.20
2024-05-09T11:02:14.772Z,1.90
2024-05-09T11:04:46.387Z,2.20
2024-05-09T11:07:20.010Z,3.10
2024-05-09T11:09:51.184Z,1.90
2024-05-09T11:12:24.703Z,2.10
2024-05-09T11:14:56.529Z,2.30
2024-05-09T11:17:27.728Z,5.00
2024-05-09T11:20:00.076Z,2.30
2024-05-09T11:22:34.648Z,3.50
2024-05-09T11:25:06.618Z,2.70
2024-05-09T11:27:40.731Z,1.80
2024-05-09T11:30:27.010Z,2.20
2024-05-09T11:33:02.902Z,1.90
2024-05-09T11:35:34.122Z,2.50
2024-05-09T11:38:05.472Z,2.50
2024-05-09T11:40:38.115Z,2.30
2024-05-09T11:43:09.413Z,1.70
2024-05-09T11:45:40.486Z,1.80
2024-05-09T11:48:11.991Z,2.60
2024-05-09T11:50:43.301Z,2.00
2024-05-09T11:53:14.765Z,2.00
2024-05-09T11:55:45.739Z,2.60
2024-05-09T11:58:18.062Z,1.60
2024-05-09T12:00:50.026Z,1.60
2024-05-09T12:03:21.502Z,2.00
2024-05-09T12:05:52.878Z,2.30
2024-05-09T12:08:24.278Z,1.90
2024-05-09T12:10:55.671Z,2.20
2024-05-09T12:13:26.899Z,2.30
2024-05-09T12:15:57.992Z,2.30
2024-05-09T12:18:28.879Z,2.60
2024-05-09T12:21:00.083Z,1.70
2024-05-09T12:23:30.946Z,1.90
2024-05-09T12:26:02.749Z,2.30
2024-05-09T12:28:33.864Z,1.80
2024-05-09T12:31:05.019Z,2.00
2024-05-09T12:33:36.660Z,2.00
2024-05-09T12:36:08.627Z,2.00
2024-05-09T12:38:40.845Z,1.80
2024-05-09T12:41:11.801Z,2.10
2024-05-09T12:43:42.978Z,1.90
2024-05-09T12:46:14.945Z,1.70
2024-05-09T12:48:46.010Z,2.00
2024-05-09T12:51:17.010Z,1.90
2024-05-09T12:53:48.461Z,1.80
2024-05-09T12:56:19.378Z,2.00
2024-05-09T12:58:51.995Z,1.80
2024-05-09T13:01:22.872Z,1.90
2024-05-09T13:03:54.275Z,2.00
2024-05-09T13:06:25.583Z,2.00
2024-05-09T13:08:56.934Z,2.00
2024-05-09T13:11:27.834Z,2.20
2024-05-09T13:13:58.968Z,2.20
2024-05-09T13:16:30.705Z,1.90
2024-05-09T13:19:02.119Z,2.00
2024-05-09T13:21:33.120Z,2.40
2024-05-09T13:24:04.309Z,2.20
2024-05-09T13:26:35.310Z,1.80
2024-05-09T13:29:06.388Z,1.90
2024-05-09T13:31:37.475Z,1.90
2024-05-09T13:34:08.627Z,2.00
2024-05-09T13:36:39.890Z,2.10
2024-05-09T13:39:10.860Z,2.50
2024-05-09T13:41:42.157Z,2.00
2024-05-09T13:44:13.191Z,2.20
2024-05-09T13:46:44.215Z,2.20
2024-05-09T13:49:16.836Z,2.30
2024-05-09T13:51:48.045Z,2.10
2024-05-09T13:54:21.905Z,2.20
2024-05-09T13:56:53.764Z,2.10
2024-05-09T13:59:24.741Z,2.20
2024-05-09T14:01:55.678Z,2.20
2024-05-09T14:04:27.162Z,1.90
2024-05-09T14:06:58.541Z,2.50
2024-05-09T14:09:29.872Z,2.50
2024-05-09T14:12:00.821Z,2.20
2024-05-09T14:14:32.103Z,1.80
2024-05-09T14:17:03.333Z,1.90
2024-05-09T14:19:34.483Z,1.90
2024-05-09T14:22:06.390Z,1.90
2024-05-09T14:24:37.734Z,1.90
2024-05-09T14:27:08.903Z,1.90
2024-05-09T14:29:39.708Z,2.00
2024-05-09T14:32:10.778Z,2.00
2024-05-09T14:34:41.907Z,1.90
2024-05-09T14:37:12.984Z,2.00
2024-05-09T14:39:44.079Z,1.80
2024-05-09T14:42:15.252Z,1.80
2024-05-09T14:44:46.230Z,1.90
2024-05-09T14:47:18.155Z,2.20
2024-05-09T14:49:49.028Z,1.80
2024-05-09T14:52:19.963Z,2.20
2024-05-09T14:54:59.929Z,1.80
2024-05-09T14:57:31.700Z,1.90
2024-05-09T15:00:05.046Z,2.10
2024-05-09T15:02:36.051Z,1.60
2024-05-09T15:05:10.569Z,1.90
2024-05-09T15:07:45.444Z,2.00
2024-05-09T15:10:23.865Z,1.90
2024-05-09T15:13:02.330Z,1.90
2024-05-09T15:15:33.178Z,1.90
2024-05-09T15:18:06.329Z,1.80
2024-05-09T15:20:38.050Z,1.90
2024-05-09T15:23:09.181Z,1.70
2024-05-09T15:25:40.379Z,1.80
2024-05-09T15:28:11.786Z,1.60
2024-05-09T15:30:46.198Z,1.70
2024-05-09T15:33:18.472Z,2.70
2024-05-09T15:35:51.504Z,2.40
2024-05-09T15:38:23.114Z,2.00
2024-05-09T15:40:54.134Z,1.90
2024-05-09T15:43:27.146Z,2.10
2024-05-09T15:45:58.121Z,2.20
2024-05-09T15:48:29.332Z,9.60
2024-05-09T15:51:00.757Z,11.60
2024-05-09T15:53:32.036Z,10.70
2024-05-09T15:56:03.468Z,3.80
2024-05-09T15:58:34.538Z,8.70
2024-05-09T16:01:05.947Z,4.80
2024-05-09T16:03:37.366Z,3.90
2024-05-09T16:06:08.866Z,2.50
2024-05-09T16:08:40.075Z,3.60
2024-05-09T16:11:13.119Z,3.20
2024-05-09T16:13:44.458Z,2.90
2024-05-09T16:16:15.720Z,5.10
2024-05-09T16:18:46.840Z,10.50
2024-05-09T16:21:17.766Z,12.10
2024-05-09T16:23:48.597Z,10.00
2024-05-09T16:26:19.587Z,3.70
2024-05-09T16:28:51.697Z,4.40
2024-05-09T16:31:22.865Z,3.40
2024-05-09T16:33:53.887Z,4.40
2024-05-09T16:36:25.202Z,2.40
2024-05-09T16:38:56.396Z,4.20
2024-05-09T16:41:27.665Z,2.20
2024-05-09T16:43:58.631Z,4.00
2024-05-09T16:46:29.776Z,4.40
2024-05-09T16:49:01.006Z,4.70
2024-05-09T16:51:32.228Z,6.80
2024-05-09T16:54:03.339Z,3.20
2024-05-09T16:56:34.315Z,4.20
2024-05-09T16:59:05.281Z,2.70
2024-05-09T17:01:36.417Z,19.30
2024-05-09T17:04:07.750Z,26.60
2024-05-09T17:06:39.208Z,33.50
2024-05-09T17:09:12.003Z,19.60
2024-05-09T17:11:46.560Z,3.80
2024-05-09T17:14:19.173Z,2.90
2024-05-09T17:16:50.662Z,3.50
2024-05-09T17:19:22.285Z,3.10
2024-05-09T17:21:53.242Z,3.20
2024-05-09T17:24:24.189Z,5.60
2024-05-09T17:26:55.212Z,70.90
2024-05-09T17:29:27.194Z,46.30
2024-05-09T17:31:58.338Z,11.10
2024-05-09T17:34:29.544Z,4.80
2024-05-09T17:37:01.219Z,2.80
2024-05-09T17:39:32.613Z,2.20
2024-05-09T17:42:04.204Z,2.10
2024-05-09T17:44:35.113Z,2.10
2024-05-09T17:47:06.945Z,2.00
2024-05-09T17:49:37.952Z,1.90
2024-05-09T17:52:09.612Z,1.80
2024-05-09T17:54:40.573Z,2.10
2024-05-09T17:57:11.667Z,1.80
2024-05-09T17:59:42.712Z,2.10
2024-05-09T18:02:14.005Z,2.00
2024-05-09T18:04:45.133Z,2.10
2024-05-09T18:07:16.341Z,2.10
2024-05-09T18:09:48.023Z,2.60
2024-05-09T18:12:19.025Z,2.00
2024-05-09T18:14:50.026Z,3.80
2024-05-09T18:17:23.641Z,3.50
2024-05-09T18:19:56.492Z,3.30
2024-05-09T18:22:29.932Z,2.70
2024-05-09T18:25:01.291Z,2.60
2024-05-09T18:27:32.403Z,2.30
2024-05-09T18:30:07.059Z,2.30
2024-05-09T18:32:38.791Z,2.00
2024-05-09T18:35:10.049Z,2.20
2024-05-09T18:37:43.469Z,2.30
2024-05-09T18:40:21.097Z,2.50
2024-05-09T18:42:58.902Z,4.00
2024-05-09T18:45:30.639Z,2.90
2024-05-09T18:48:01.978Z,3.10
2024-05-09T18:50:37.604Z,2.90
2024-05-09T18:53:12.981Z,2.40
2024-05-09T18:55:45.071Z,2.60
2024-05-09T18:58:17.618Z,2.40
2024-05-09T19:00:51.226Z,2.60
2024-05-09T19:03:26.639Z,2.40
2024-05-09T19:05:57.808Z,2.00
2024-05-09T19:08:28.740Z,2.10
2024-05-09T19:11:01.560Z,2.10
2024-05-09T19:13:32.891Z,2.50
2024-05-09T19:16:05.283Z,2.50
2024-05-09T19:18:36.538Z,2.30
2024-05-09T19:21:08.115Z,2.00
2024-05-09T19:23:47.149Z,2.50
2024-05-09T19:26:22.920Z,2.10
2024-05-09T19:28:54.254Z,2.30
2024-05-09T19:31:25.826Z,2.40
2024-05-09T19:33:57.384Z,2.20
2024-05-09T19:36:28.856Z,2.30
2024-05-09T19:39:01.331Z,3.10
2024-05-09T19:41:33.528Z,3.00
2024-05-09T19:44:05.820Z,3.00
2024-05-09T19:46:38.012Z,3.30
2024-05-09T19:49:09.118Z,3.60
2024-05-09T19:51:40.148Z,3.40
2024-05-09T19:54:11.361Z,2.70
2024-05-09T19:56:45.034Z,3.20
2024-05-09T19:59:17.316Z,2.50
2024-05-09T20:01:48.616Z,2.70
2024-05-09T20:04:19.819Z,2.70
2024-05-09T20:06:51.243Z,2.90
2024-05-09T20:09:22.446Z,2.50
2024-05-09T20:11:53.825Z,2.60
2024-05-09T20:14:25.168Z,2.70
2024-05-09T20:16:57.011Z,2.90
2024-05-09T20:19:28.526Z,2.80
2024-05-09T20:21:59.891Z,3.70
2024-05-09T20:24:31.132Z,3.00
2024-05-09T20:27:02.399Z,2.70
2024-05-09T20:29:33.437Z,2.30
2024-05-09T20:32:04.981Z,3.40
2024-05-09T20:34:36.041Z,2.30
2024-05-09T20:37:07.318Z,2.50
2024-05-09T20:39:38.425Z,3.20
2024-05-09T20:42:09.806Z,3.50
2024-05-09T20:44:40.872Z,2.40
2024-05-09T20:47:12.118Z,2.70
2024-05-09T20:49:43.191Z,2.50
2024-05-09T20:52:14.422Z,2.30
2024-05-09T20:54:45.587Z,2.70
2024-05-09T20:57:17.375Z,2.60
2024-05-09T20:59:48.568Z,3.50
2024-05-09T21:02:20.088Z,3.10
2024-05-09T21:04:51.599Z,2.60
2024-05-09T21:07:22.781Z,3.00
2024-05-09T21:09:53.825Z,3.30
2024-05-09T21:12:25.035Z,3.00
2024-05-09T21:14:56.047Z,2.80
2024-05-09T21:17:27.231Z,4.00
2024-05-09T21:19:58.289Z,3.40
2024-05-09T21:24:58.876Z,3.00
2024-05-09T21:29:59.467Z,2.30
2024-05-09T21:32:30.681Z,2.70
2024-05-09T21:35:01.944Z,2.80
2024-05-09T21:37:32.983Z,3.10
2024-05-09T21:42:42.663Z,2.60
2024-05-09T21:45:13.661Z,2.90
2024-05-09T21:47:44.630Z,2.30
2024-05-09T21:50:22.751Z,2.60
2024-05-09T21:52:59.445Z,3.10
2024-05-09T21:55:30.669Z,3.10
2024-05-09T21:58:02.266Z,2.70
2024-05-09T22:00:38.026Z,2.50
2024-05-09T22:03:11.608Z,2.70
2024-05-09T22:05:44.567Z,2.90
2024-05-09T22:08:16.125Z,2.70
2024-05-09T22:10:47.178Z,3.10
2024-05-09T22:13:20.055Z,3.20
2024-05-09T22:15:51.449Z,2.80
2024-05-09T22:18:22.731Z,2.70
2024-05-09T22:20:54.997Z,3.10
2024-05-09T22:23:26.309Z,2.50
2024-05-09T22:25:57.126Z,2.70
2024-05-09T22:33:28.036Z,2.40
2024-05-09T22:35:58.934Z,2.70
2024-05-09T22:40:59.555Z,2.50
2024-05-09T22:43:30.700Z,2.40
2024-05-09T22:46:03.225Z,2.60
2024-05-09T22:48:34.834Z,2.10
2024-05-09T22:51:06.534Z,2.60
2024-05-09T22:53:37.314Z,2.80
2024-05-09T22:56:09.362Z,2.90
2024-05-09T22:58:40.426Z,2.90
2024-05-09T23:01:17.483Z,3.30
2024-05-09T23:03:49.127Z,3.30
2024-05-09T23:06:20.188Z,3.10
2024-05-09T23:08:51.059Z,2.70
2024-05-09T23:11:22.095Z,2.60
2024-05-09T23:13:53.159Z,2.40
2024-05-09T23:21:23.757Z,2.70
2024-05-09T23:23:54.784Z,2.70
2024-05-09T23:28:55.372Z,2.10
2024-05-09T23:33:56.347Z,2.60
2024-05-09T23:36:29.367Z,2.40
2024-05-09T23:39:00.843Z,2.50
2024-05-09T23:41:31.869Z,2.70
2024-05-09T23:46:32.686Z,2.50
2024-05-09T23:51:33.435Z,2.90
2024-05-09T23:54:04.546Z,2.60
2024-05-09T23:56:35.639Z,2.50
2024-05-09T23:59:06.892Z,2.70
